createdAt,value
2023-02-28T00:00:23.393Z,0.40
2023-02-28T00:04:24.928Z,0.53
2023-02-28T00:08:26.457Z,0.30
2023-02-28T00:12:28.400Z,0.07
2023-02-28T00:16:29.914Z,0.22
2023-02-28T00:20:31.608Z,0.44
2023-02-28T00:24:33.045Z,0.40
2023-02-28T00:28:34.623Z,0.40
2023-02-28T00:32:36.259Z,0.67
2023-02-28T00:36:37.732Z,0.39
2023-02-28T00:40:39.215Z,0.40
2023-02-28T00:44:40.695Z,0.41
2023-02-28T00:48:42.166Z,0.52
2023-02-28T00:52:43.660Z,0.48
2023-02-28T00:56:46.919Z,0.83
2023-02-28T01:00:51.175Z,0.67
2023-02-28T01:04:52.705Z,0.23
2023-02-28T01:08:54.334Z,0.62
2023-02-28T01:12:55.842Z,0.52
2023-02-28T01:16:57.332Z,0.66
2023-02-28T01:20:58.869Z,0.32
2023-02-28T01:25:00.344Z,0.45
2023-02-28T01:29:01.832Z,0.49
2023-02-28T01:33:03.415Z,0.51
2023-02-28T01:37:05.291Z,0.54
2023-02-28T01:41:07.812Z,0.61
2023-02-28T01:45:28.858Z,0.50
2023-02-28T01:49:30.487Z,0.69
2023-02-28T01:53:40.350Z,0.30
2023-02-28T01:57:47.789Z,0.25
2023-02-28T02:01:49.847Z,0.49
2023-02-28T02:05:51.450Z,0.01
2023-02-28T02:10:15.786Z,-0.01
2023-02-28T02:14:59.592Z,-0.08
2023-02-28T02:19:27.387Z,-0.22
2023-02-28T02:24:06.698Z,-0.56
2023-02-28T02:28:35.613Z,-0.19
2023-02-28T02:33:07.468Z,-0.11
2023-02-28T02:37:25.944Z,-0.13
2023-02-28T02:41:49.624Z,-0.77
2023-02-28T02:45:57.486Z,-0.58
2023-02-28T02:50:02.064Z,-0.56
2023-02-28T02:54:12.717Z,-0.34
2023-02-28T02:58:19.767Z,-0.89
2023-02-28T03:02:22.671Z,-0.79
2023-02-28T03:06:25.212Z,-1.18
2023-02-28T03:10:31.360Z,-1.53
2023-02-28T03:14:41.794Z,-1.32
2023-02-28T03:18:55.556Z,-1.38
2023-02-28T03:23:02.748Z,-1.38
2023-02-28T03:27:34.607Z,-1.42
2023-02-28T03:31:44.651Z,-1.38
2023-02-28T03:35:55.305Z,-1.32
2023-02-28T03:40:03.290Z,-1.41
2023-02-28T03:44:16.226Z,-1.26
2023-02-28T03:48:32.748Z,-1.09
2023-02-28T03:52:39.951Z,-1.43
2023-02-28T03:56:54.820Z,-1.46
2023-02-28T04:01:09.604Z,-1.37
2023-02-28T04:05:11.840Z,-1.32
2023-02-28T04:09:15.706Z,-1.53
2023-02-28T04:13:17.218Z,-1.53
2023-02-28T04:17:19.278Z,-1.33
2023-02-28T04:21:24.338Z,-1.57
2023-02-28T04:25:27.034Z,-1.53
2023-02-28T04:29:30.978Z,-1.47
2023-02-28T04:33:33.670Z,-1.87
2023-02-28T04:37:35.828Z,-1.75
2023-02-28T04:41:37.438Z,-1.55
2023-02-28T04:45:38.877Z,-1.57
2023-02-28T04:49:42.260Z,-1.49
2023-02-28T04:53:43.987Z,-1.72
2023-02-28T04:57:45.493Z,-1.90
2023-02-28T05:01:49.230Z,-2.14
2023-02-28T05:05:50.722Z,-1.81
2023-02-28T05:09:52.176Z,-1.80
2023-02-28T05:13:54.733Z,-1.94
2023-02-28T05:17:57.273Z,-2.01
2023-02-28T05:21:59.109Z,-1.96
2023-02-28T05:26:00.564Z,-2.02
2023-02-28T05:30:04.448Z,-1.91
2023-02-28T05:34:06.386Z,-1.91
2023-02-28T05:38:08.223Z,-1.78
2023-02-28T05:42:10.264Z,-1.72
2023-02-28T05:46:12.677Z,-1.91
2023-02-28T05:50:14.210Z,-1.94
2023-02-28T05:54:15.988Z,-2.05
2023-02-28T05:58:17.414Z,-2.38
2023-02-28T06:02:19.101Z,-2.45
2023-02-28T06:06:20.654Z,-2.41
2023-02-28T06:10:22.140Z,-2.38
2023-02-28T06:14:23.654Z,-2.51
2023-02-28T06:18:25.102Z,-2.45
2023-02-28T06:22:26.568Z,-2.33
2023-02-28T06:26:28.125Z,-2.01
2023-02-28T06:30:31.014Z,-2.14
2023-02-28T06:34:34.651Z,-2.01
2023-02-28T06:38:36.908Z,-1.95
2023-02-28T06:42:38.305Z,-1.95
2023-02-28T06:46:41.601Z,-1.77
2023-02-28T06:50:44.470Z,-1.56
2023-02-28T06:54:46.091Z,-1.29
2023-02-28T06:58:50.407Z,-1.16
2023-02-28T07:02:52.168Z,-1.14
2023-02-28T07:06:53.603Z,-1.06
2023-02-28T07:10:57.601Z,-0.79
2023-02-28T07:14:59.204Z,-0.68
2023-02-28T07:19:00.764Z,-0.55
2023-02-28T07:23:02.325Z,-0.29
2023-02-28T07:27:03.935Z,-0.20
2023-02-28T07:31:07.158Z,-0.17
2023-02-28T07:35:09.290Z,0.00
2023-02-28T07:39:11.165Z,-0.19
2023-02-28T07:43:12.620Z,0.17
2023-02-28T07:47:14.096Z,0.50
2023-02-28T07:51:15.566Z,0.63
2023-02-28T07:55:17.722Z,1.13
2023-02-28T07:59:19.166Z,1.35
2023-02-28T08:03:22.033Z,1.52
2023-02-28T08:07:23.490Z,1.33
2023-02-28T08:11:25.004Z,1.90
2023-02-28T08:15:26.603Z,2.25
2023-02-28T08:19:28.566Z,2.40
2023-02-28T08:23:30.071Z,2.29
2023-02-28T08:27:31.504Z,2.78
2023-02-28T08:31:33.171Z,2.94
2023-02-28T08:35:37.019Z,3.05
2023-02-28T08:39:38.610Z,3.17
2023-02-28T08:43:41.293Z,3.17
2023-02-28T08:47:42.796Z,3.59
2023-02-28T08:51:44.231Z,3.60
2023-02-28T08:55:46.040Z,3.82
2023-02-28T08:59:47.635Z,3.95
2023-02-28T09:03:50.756Z,3.64
2023-02-28T09:07:52.485Z,3.85
2023-02-28T09:11:56.775Z,3.85
2023-02-28T09:16:00.270Z,3.68
2023-02-28T09:20:01.776Z,3.87
2023-02-28T09:24:03.419Z,4.15
2023-02-28T09:28:05.259Z,4.69
2023-02-28T09:32:08.843Z,4.40
2023-02-28T09:36:10.467Z,4.66
2023-02-28T09:40:13.346Z,4.51
2023-02-28T09:44:25.896Z,4.73
2023-02-28T09:48:37.615Z,5.34
2023-02-28T09:52:40.007Z,5.36
2023-02-28T09:56:43.601Z,5.32
2023-02-28T10:00:48.311Z,5.53
2023-02-28T10:04:58.538Z,5.27
2023-02-28T10:09:15.160Z,5.57
2023-02-28T10:13:34.918Z,6.20
2023-02-28T10:17:54.898Z,5.63
2023-02-28T10:22:11.684Z,6.06
2023-02-28T10:26:16.968Z,6.32
2023-02-28T10:30:18.635Z,6.35
2023-02-28T10:34:20.084Z,6.64
2023-02-28T10:38:38.542Z,7.18
2023-02-28T10:42:40.005Z,6.94
2023-02-28T10:46:43.453Z,7.19
2023-02-28T10:50:47.794Z,6.97
2023-02-28T10:54:49.399Z,7.60
2023-02-28T10:59:00.243Z,8.06
2023-02-28T11:03:01.744Z,8.28
2023-02-28T11:07:27.673Z,8.16
2023-02-28T11:11:32.718Z,8.29
2023-02-28T11:15:35.645Z,8.43
2023-02-28T11:19:44.948Z,8.63
2023-02-28T11:23:47.928Z,8.28
2023-02-28T11:27:52.125Z,8.51
2023-02-28T11:32:09.713Z,8.51
2023-02-28T11:36:27.158Z,7.88
2023-02-28T11:40:47.589Z,8.98
2023-02-28T11:45:20.794Z,8.90
2023-02-28T11:49:24.950Z,8.49
2023-02-28T11:53:51.591Z,9.08
2023-02-28T11:58:00.497Z,9.43
2023-02-28T12:02:25.417Z,9.11
2023-02-28T12:06:39.693Z,9.09
2023-02-28T12:11:05.887Z,8.72
2023-02-28T12:15:28.768Z,8.89
2023-02-28T12:19:37.003Z,9.83
2023-02-28T12:24:01.690Z,10.15
2023-02-28T12:28:03.884Z,10.32
2023-02-28T12:32:19.639Z,10.38
2023-02-28T12:36:27.095Z,10.86
2023-02-28T12:40:45.685Z,10.11
2023-02-28T12:44:55.263Z,10.31
2023-02-28T12:48:58.572Z,10.52
2023-02-28T12:52:59.986Z,10.68
2023-02-28T12:57:30.790Z,10.48
2023-02-28T13:02:17.338Z,9.83
2023-02-28T13:06:36.574Z,10.19
2023-02-28T13:10:47.412Z,10.31
2023-02-28T13:14:50.908Z,10.55
2023-02-28T13:18:53.629Z,10.08
2023-02-28T13:22:57.365Z,9.88
2023-02-28T13:27:01.985Z,9.16
2023-02-28T13:31:05.692Z,9.95
2023-02-28T13:35:07.105Z,8.37
2023-02-28T13:39:44.049Z,10.36
2023-02-28T13:44:09.656Z,10.59
2023-02-28T13:48:25.575Z,10.75
2023-02-28T13:52:27.225Z,10.41
2023-02-28T13:56:47.929Z,10.41
2023-02-28T14:01:05.581Z,10.88
2023-02-28T14:09:29.667Z,11.55
2023-02-28T14:13:48.319Z,10.95
2023-02-28T14:17:53.748Z,11.70
2023-02-28T14:22:13.415Z,11.38
2023-02-28T14:26:33.124Z,11.08
2023-02-28T14:30:50.770Z,11.89
2023-02-28T14:35:05.819Z,11.21
2023-02-28T14:39:13.096Z,12.38
2023-02-28T14:43:24.483Z,11.21
2023-02-28T14:47:32.636Z,11.25
2023-02-28T14:51:34.389Z,11.46
2023-02-28T14:55:36.798Z,12.10
2023-02-28T14:59:38.350Z,12.09
2023-02-28T15:03:40.722Z,11.64
2023-02-28T15:07:42.197Z,10.53
2023-02-28T15:11:48.172Z,9.55
2023-02-28T15:16:03.758Z,9.64
2023-02-28T15:20:06.047Z,8.97
2023-02-28T15:24:24.817Z,11.05
2023-02-28T15:28:26.544Z,10.92
2023-02-28T15:32:37.236Z,11.41
2023-02-28T15:36:38.811Z,10.16
2023-02-28T15:40:44.364Z,9.86
2023-02-28T15:44:46.394Z,9.92
2023-02-28T15:48:55.703Z,8.18
2023-02-28T15:52:57.356Z,8.84
2023-02-28T15:57:05.565Z,9.47
2023-02-28T16:01:21.651Z,8.80
2023-02-28T16:05:32.706Z,7.38
2023-02-28T16:09:35.310Z,8.00
2023-02-28T16:13:37.745Z,7.83
2023-02-28T16:17:40.217Z,7.09
2023-02-28T16:21:41.668Z,7.11
2023-02-28T16:25:45.591Z,5.75
2023-02-28T16:29:48.365Z,6.44
2023-02-28T16:33:49.934Z,6.13
2023-02-28T16:37:52.180Z,5.21
2023-02-28T16:41:53.868Z,5.84
2023-02-28T16:46:01.246Z,5.69
2023-02-28T16:50:05.913Z,5.49
2023-02-28T16:54:07.438Z,4.13
2023-02-28T16:58:15.369Z,3.98
2023-02-28T17:02:20.290Z,3.83
2023-02-28T17:06:28.032Z,3.29
2023-02-28T17:10:29.918Z,3.19
2023-02-28T17:14:32.191Z,4.22
2023-02-28T17:18:35.566Z,3.87
2023-02-28T17:22:37.048Z,2.92
2023-02-28T17:26:43.089Z,2.55
2023-02-28T17:30:48.088Z,2.30
2023-02-28T17:34:49.650Z,2.42
2023-02-28T17:38:51.500Z,2.63
2023-02-28T17:42:53.236Z,3.19
2023-02-28T17:46:56.095Z,3.43
2023-02-28T17:50:57.641Z,3.40
2023-02-28T17:54:59.149Z,3.52
2023-02-28T17:59:00.765Z,3.62
2023-02-28T18:03:02.310Z,3.44
2023-02-28T18:07:04.109Z,3.14
2023-02-28T18:11:05.632Z,1.92
2023-02-28T18:15:07.439Z,2.58
2023-02-28T18:19:14.875Z,1.85
2023-02-28T18:23:18.355Z,1.97
2023-02-28T18:27:19.945Z,1.96
2023-02-28T18:31:27.354Z,1.71
2023-02-28T18:35:35.469Z,1.89
2023-02-28T18:39:37.062Z,2.41
2023-02-28T18:43:39.248Z,2.66
2023-02-28T18:47:40.961Z,2.21
2023-02-28T18:51:46.511Z,1.96
2023-02-28T18:55:48.100Z,1.97
2023-02-28T18:59:49.652Z,2.56
2023-02-28T19:03:51.552Z,2.37
2023-02-28T19:07:53.100Z,2.33
2023-02-28T19:11:57.678Z,2.53
2023-02-28T19:16:03.648Z,2.17
2023-02-28T19:20:06.607Z,2.42
2023-02-28T19:24:08.159Z,2.16
2023-02-28T19:28:09.899Z,1.25
2023-02-28T19:32:11.465Z,1.81
2023-02-28T19:36:14.062Z,1.86
2023-02-28T19:40:15.610Z,1.74
2023-02-28T19:44:17.107Z,1.94
2023-02-28T19:48:18.725Z,2.01
2023-02-28T19:52:24.844Z,1.78
2023-02-28T19:56:26.386Z,1.36
2023-02-28T20:00:27.956Z,1.48
2023-02-28T20:04:29.639Z,1.41
2023-02-28T20:08:31.185Z,1.24
2023-02-28T20:12:32.704Z,0.63
2023-02-28T20:16:34.363Z,0.63
2023-02-28T20:20:37.597Z,0.85
2023-02-28T20:24:39.117Z,0.77
2023-02-28T20:28:41.571Z,0.10
2023-02-28T20:32:43.197Z,0.51
2023-02-28T20:36:44.772Z,0.34
2023-02-28T20:40:46.251Z,0.42
2023-02-28T20:44:47.791Z,0.25
2023-02-28T20:48:49.353Z,0.44
2023-02-28T20:52:51.316Z,0.45
2023-02-28T20:56:52.835Z,0.38
2023-02-28T21:01:16.918Z,0.24
2023-02-28T21:05:18.446Z,0.17
2023-02-28T21:09:19.986Z,0.04
2023-02-28T21:13:21.689Z,0.03
2023-02-28T21:17:23.178Z,-0.04
2023-02-28T21:21:24.929Z,-0.08
2023-02-28T21:25:26.564Z,-0.26
2023-02-28T21:29:28.077Z,-0.21
2023-02-28T21:33:30.341Z,-0.24
2023-02-28T21:37:31.865Z,-0.16
2023-02-28T21:41:33.739Z,-0.12
2023-02-28T21:45:35.247Z,-0.14
2023-02-28T21:49:39.037Z,-0.18
2023-02-28T21:53:41.638Z,-0.19
2023-02-28T21:57:43.217Z,0.53
2023-02-28T22:01:46.131Z,0.45
2023-02-28T22:05:47.842Z,0.12
2023-02-28T22:09:49.333Z,-0.10
2023-02-28T22:13:56.039Z,-0.18
2023-02-28T22:17:58.638Z,-0.36
2023-02-28T22:22:00.154Z,-0.50
2023-02-28T22:26:03.997Z,-0.54
2023-02-28T22:30:06.144Z,-0.67
2023-02-28T22:34:11.003Z,-0.89
2023-02-28T22:38:13.191Z,-0.99
2023-02-28T22:42:14.672Z,-1.06
2023-02-28T22:46:16.191Z,-1.51
2023-02-28T22:50:17.888Z,-1.13
2023-02-28T22:54:19.492Z,-1.18
2023-02-28T22:58:20.933Z,-1.28
2023-02-28T23:02:22.423Z,-1.29
2023-02-28T23:06:27.293Z,-1.28
2023-02-28T23:10:28.776Z,-1.39
2023-02-28T23:14:30.230Z,-1.39
2023-02-28T23:18:31.741Z,-1.45
2023-02-28T23:22:33.219Z,-1.49
2023-02-28T23:26:34.732Z,-1.43
2023-02-28T23:30:39.366Z,-1.47
2023-02-28T23:34:40.867Z,-1.54
2023-02-28T23:38:45.710Z,-1.53
2023-02-28T23:42:47.161Z,-1.45
2023-02-28T23:46:52.723Z,-1.49
2023-02-28T23:50:58.048Z,-1.60
2023-02-28T23:55:00.781Z,-1.76
2023-02-28T23:59:02.233Z,-1.90
